Time;durP1;ratioP1;P1;durP2;ratioP2;P2;SDS_P1;SDS_P2;PMS_P1;PMS_P2;Temp;Humidity;BMP_temperature;BMP_pressure;BME280_temperature;BME280_humidity;BME280_pressure;Samples;Min_cycle;Max_cycle;Signal;HPM_P1;HPM_P2
2023/09/11 00:01:33;;;;;;;3.33;1.80;;;;;;;18.26;76.92;99516.19;5107977;28;20249;-63
2023/09/11 00:04:00;;;;;;;2.43;1.43;;;;;;;18.24;77.09;99514.75;5108705;28;20195;-62
2023/09/11 00:06:26;;;;;;;2.30;1.60;;;;;;;18.18;76.50;99518.72;5108652;28;20208;-62
2023/09/11 00:08:53;;;;;;;1.80;1.50;;;;;;;18.18;76.68;99516.16;5107436;28;20215;-62
2023/09/11 00:11:22;;;;;;;3.43;1.60;;;;;;;18.16;77.27;99523.25;5107917;28;20230;-62
2023/09/11 00:13:49;;;;;;;3.10;1.50;;;;;;;18.10;76.93;99518.66;5108103;28;20747;-62
2023/09/11 00:16:16;;;;;;;4.67;1.50;;;;;;;17.99;77.91;99517.09;5108036;28;20204;-62
2023/09/11 00:18:42;;;;;;;4.30;1.90;;;;;;;17.97;77.74;99520.78;5108090;28;20195;-62
2023/09/11 00:21:09;;;;;;;4.00;2.00;;;;;;;17.95;77.54;99512.34;5108092;28;20198;-62
2023/09/11 00:23:36;;;;;;;1.43;1.33;;;;;;;17.97;77.87;99516.44;5107840;28;20192;-62
2023/09/11 00:26:03;;;;;;;2.10;1.57;;;;;;;17.95;77.85;99514.94;5107625;28;20202;-62
2023/09/11 00:28:31;;;;;;;2.40;1.63;;;;;;;18.00;78.05;99513.53;5108447;28;20210;-62
2023/09/11 00:31:00;;;;;;;2.97;1.73;;;;;;;18.02;77.74;99508.22;5108126;28;20214;-62
2023/09/11 00:33:26;;;;;;;1.93;1.60;;;;;;;18.03;77.74;99504.69;5109994;28;20207;-62
2023/09/11 00:35:53;;;;;;;7.63;1.60;;;;;;;17.98;77.83;99501.75;5112305;28;20644;-62
2023/09/11 00:38:20;;;;;;;4.93;1.50;;;;;;;17.95;78.07;99502.00;5112121;28;20202;-62
2023/09/11 00:40:47;;;;;;;5.40;1.53;;;;;;;18.02;77.99;99503.06;5111724;28;20200;-62
2023/09/11 00:43:13;;;;;;;2.00;1.60;;;;;;;18.02;78.00;99503.06;5111713;28;20201;-62
2023/09/11 00:45:42;;;;;;;1.57;1.47;;;;;;;18.00;77.52;99494.63;5112176;28;20205;-62
2023/09/11 00:48:11;;;;;;;2.90;1.57;;;;;;;18.03;77.37;99502.09;5111778;28;20203;-62
2023/09/11 00:50:38;;;;;;;2.53;1.80;;;;;;;17.96;78.21;99498.47;5111808;28;20207;-62
2023/09/11 00:53:07;;;;;;;2.43;1.60;;;;;;;17.96;77.26;99501.88;5111776;28;20240;-62
2023/09/11 00:55:34;;;;;;;2.33;1.50;;;;;;;18.00;76.60;99499.78;5111703;28;20214;-62
2023/09/11 00:58:01;;;;;;;3.27;1.60;;;;;;;18.02;76.19;99492.72;5111259;28;20234;-62
2023/09/11 01:00:28;;;;;;;3.20;1.73;;;;;;;17.99;76.59;99495.59;5111788;28;20203;-62
2023/09/11 01:02:57;;;;;;;3.10;1.60;;;;;;;17.98;76.61;99492.19;5112040;28;20204;-62
2023/09/11 01:05:28;;;;;;;2.07;1.50;;;;;;;18.00;76.77;99505.78;5110911;28;20617;-62
2023/09/11 01:07:56;;;;;;;3.00;1.50;;;;;;;18.03;76.26;99499.50;5111344;28;20215;-63
2023/09/11 01:10:23;;;;;;;4.47;1.67;;;;;;;17.97;76.21;99500.91;5111965;28;20216;-62
2023/09/11 01:12:50;;;;;;;6.10;1.90;;;;;;;17.90;76.47;99504.25;5110908;28;20227;-62
2023/09/11 01:15:17;;;;;;;7.23;1.80;;;;;;;17.72;77.96;99507.59;5111257;28;20233;-62
2023/09/11 01:17:50;;;;;;;2.80;1.57;;;;;;;17.67;77.71;99498.66;5111484;28;20191;-62
2023/09/11 01:20:56;;;;;;;3.83;1.70;;;;;;;17.62;78.97;99501.66;5111245;28;20187;-62
2023/09/11 01:24:00;;;;;;;2.20;1.40;;;;;;;17.53;78.35;99508.53;5110804;28;20358;-62
2023/09/11 01:27:02;;;;;;;1.60;1.40;;;;;;;17.46;79.00;99507.50;5080126;28;20735;-62
2023/09/11 01:29:33;;;;;;;1.97;1.37;;;;;;;17.32;79.97;99506.19;5084588;27;20310;-62
2023/09/11 01:32:04;;;;;;;1.60;1.23;;;;;;;17.25;80.10;99505.16;5111144;28;20217;-62
2023/09/11 01:34:31;;;;;;;4.83;1.43;;;;;;;17.17;80.35;99498.09;5111501;28;20255;-62
2023/09/11 01:36:58;;;;;;;1.70;1.40;;;;;;;17.10;81.49;99501.38;5110699;28;20693;-63
2023/09/11 01:39:25;;;;;;;1.23;1.13;;;;;;;17.01;81.77;99497.09;5110964;28;20210;-62
2023/09/11 01:41:55;;;;;;;1.33;1.20;;;;;;;17.00;81.76;99495.47;5111171;28;20208;-62
2023/09/11 01:44:27;;;;;;;4.03;1.83;;;;;;;17.02;81.55;99496.16;5109808;28;20212;-62
2023/09/11 01:46:58;;;;;;;1.70;1.37;;;;;;;16.97;82.34;99497.38;5110281;28;20672;-62
2023/09/11 01:49:26;;;;;;;4.57;1.40;;;;;;;16.92;82.51;99494.38;5111028;28;20197;-62
2023/09/11 01:51:53;;;;;;;3.77;1.60;;;;;;;16.93;82.75;99503.78;5110897;28;20245;-62
2023/09/11 01:54:21;;;;;;;2.27;1.47;;;;;;;16.90;83.01;99501.47;5110162;28;20201;-62
2023/09/11 01:56:48;;;;;;;2.67;1.23;;;;;;;16.79;83.53;99498.25;5110777;28;20205;-62
2023/09/11 01:59:15;;;;;;;1.30;1.17;;;;;;;16.78;83.64;99500.00;5110832;28;20220;-62
2023/09/11 02:01:42;;;;;;;2.40;1.30;;;;;;;16.81;84.08;99501.50;5109740;28;20197;-62
2023/09/11 02:04:10;;;;;;;1.67;1.30;;;;;;;16.77;84.04;99500.16;5110359;28;20202;-62
2023/09/11 02:06:37;;;;;;;1.40;1.10;;;;;;;16.80;84.20;99508.44;5110648;28;20205;-62
2023/09/11 02:09:04;;;;;;;4.10;1.30;;;;;;;16.86;84.17;99500.13;5110087;28;20216;-62
2023/09/11 02:11:31;;;;;;;2.33;1.20;;;;;;;16.81;83.78;99502.31;5110140;28;20656;-62
2023/09/11 02:13:58;;;;;;;1.10;1.00;;;;;;;16.79;84.22;99499.06;5110676;28;20205;-62
2023/09/11 02:16:25;;;;;;;2.30;1.50;;;;;;;16.77;83.72;99498.38;5110032;28;20638;-62
2023/09/11 02:18:51;;;;;;;1.10;0.90;;;;;;;16.78;83.94;99491.44;5109514;28;20212;-62
2023/09/11 02:21:20;;;;;;;4.87;1.50;;;;;;;16.79;84.21;99506.81;5110318;28;20205;-62
2023/09/11 02:23:47;;;;;;;1.70;1.40;;;;;;;16.77;84.20;99500.97;5109865;28;20220;-62
2023/09/11 02:26:14;;;;;;;6.33;1.40;;;;;;;16.77;84.48;99500.97;5109403;28;20665;-62
2023/09/11 02:28:41;;;;;;;1.80;1.40;;;;;;;16.74;84.48;99496.06;5109970;28;20193;-62
2023/09/11 02:31:08;;;;;;;1.97;1.33;;;;;;;16.77;85.05;99495.81;5110109;28;20653;-63
2023/09/11 02:33:35;;;;;;;2.00;1.50;;;;;;;16.82;85.20;99495.41;5109375;28;20233;-62
2023/09/11 02:36:02;;;;;;;1.70;1.47;;;;;;;16.78;84.97;99501.78;5109759;28;20734;-62
2023/09/11 02:38:31;;;;;;;3.07;1.77;;;;;;;16.78;85.54;99491.44;5109847;28;20585;-62
2023/09/11 02:40:58;;;;;;;2.03;1.43;;;;;;;16.80;86.91;99500.69;5109512;28;20209;-62
2023/09/11 02:43:25;;;;;;;1.20;1.10;;;;;;;16.75;87.55;99495.94;5109390;28;20224;-62
2023/09/11 02:45:52;;;;;;;4.90;1.57;;;;;;;16.76;87.12;99494.19;5109781;28;20308;-62
2023/09/11 02:48:18;;;;;;;6.43;1.50;;;;;;;16.74;87.33;99490.88;5109637;28;20197;-62
2023/09/11 02:50:45;;;;;;;1.60;1.10;;;;;;;16.75;86.96;99492.50;5108905;28;20689;-62
2023/09/11 02:53:13;;;;;;;2.60;1.50;;;;;;;16.75;87.35;99490.75;5109558;28;20229;-63
2023/09/11 02:55:41;;;;;;;2.90;1.40;;;;;;;16.75;86.76;99492.50;5109472;28;20205;-62
2023/09/11 02:58:07;;;;;;;1.37;1.27;;;;;;;16.77;86.13;99495.81;5109020;28;20212;-62
2023/09/11 03:00:35;;;;;;;2.03;1.43;;;;;;;16.76;85.72;99489.03;5109300;28;20203;-62
2023/09/11 03:03:03;;;;;;;1.20;1.10;;;;;;;16.75;86.59;99484.75;5109591;28;20724;-62
2023/09/11 03:05:31;;;;;;;4.40;1.27;;;;;;;16.76;86.20;99476.09;5109371;28;20197;-62
2023/09/11 03:07:58;;;;;;;2.10;1.27;;;;;;;16.77;86.40;99485.47;5109007;28;20201;-62
2023/09/11 03:10:25;;;;;;;1.67;1.20;;;;;;;16.73;86.66;99484.09;5109363;28;20217;-62
2023/09/11 03:12:53;;;;;;;1.83;1.20;;;;;;;16.70;86.61;99484.38;5109309;28;20605;-62
2023/09/11 03:15:21;;;;;;;1.90;1.40;;;;;;;16.71;87.15;99486.00;5108515;28;20193;-62
2023/09/11 03:17:50;;;;;;;1.57;1.13;;;;;;;16.68;87.12;99486.28;5109361;28;20211;-62
2023/09/11 03:20:17;;;;;;;2.20;1.20;;;;;;;16.63;86.72;99488.47;5109327;28;20649;-62
2023/09/11 03:22:44;;;;;;;1.57;1.23;;;;;;;16.66;86.41;99488.19;5107808;28;20227;-62
2023/09/11 03:25:11;;;;;;;1.97;1.20;;;;;;;16.64;86.67;99485.75;5109048;28;20236;-62
2023/09/11 03:27:39;;;;;;;2.57;1.10;;;;;;;16.64;86.94;99479.75;5108894;28;20287;-62
2023/09/11 03:30:08;;;;;;;2.30;1.20;;;;;;;16.65;86.77;99481.41;5108353;28;20218;-62
2023/09/11 03:32:35;;;;;;;1.30;1.10;;;;;;;16.63;86.44;99480.72;5108884;28;20612;-62
2023/09/11 03:35:01;;;;;;;2.27;1.20;;;;;;;16.64;86.16;99484.91;5108808;28;20200;-62
2023/09/11 03:37:28;;;;;;;1.67;1.30;;;;;;;16.64;85.82;99484.91;5108317;28;20213;-62
2023/09/11 03:39:57;;;;;;;1.70;1.30;;;;;;;16.65;82.86;99487.38;5108493;28;20208;-62
2023/09/11 03:42:22;;;;;;;2.80;1.20;;;;;;;16.66;82.21;99491.56;5109155;28;20209;-62
2023/09/11 03:44:49;;;;;;;2.37;1.30;;;;;;;16.61;82.81;99491.19;5108455;28;20284;-62
2023/09/11 03:47:17;;;;;;;3.10;1.40;;;;;;;16.59;83.12;99494.88;5108047;28;20665;-62
2023/09/11 03:49:44;;;;;;;1.53;1.20;;;;;;;16.51;83.95;99491.19;5108607;28;20461;-62
2023/09/11 03:52:11;;;;;;;2.10;1.20;;;;;;;16.49;84.54;99492.28;5108455;28;20198;-62
2023/09/11 03:54:38;;;;;;;2.03;1.20;;;;;;;16.51;84.24;99495.56;5107930;28;20201;-62
2023/09/11 03:57:05;;;;;;;1.23;1.10;;;;;;;16.52;84.53;99500.59;5108281;28;20689;-62
2023/09/11 03:59:32;;;;;;;1.47;1.20;;;;;;;16.45;84.10;99496.13;5108951;28;20193;-62
2023/09/11 04:01:58;;;;;;;1.53;1.30;;;;;;;16.39;84.48;99500.06;5107945;28;20213;-62
2023/09/11 04:04:27;;;;;;;1.40;1.20;;;;;;;16.38;84.79;99497.63;5107658;28;20900;-62
2023/09/11 04:06:53;;;;;;;2.33;1.17;;;;;;;16.33;84.87;99499.81;5108115;28;20228;-62
2023/09/11 04:09:20;;;;;;;1.23;1.00;;;;;;;16.28;85.19;99500.19;5108154;28;20205;-62
2023/09/11 04:11:47;;;;;;;1.23;1.10;;;;;;;16.32;85.18;99495.56;5107890;28;20861;-62
2023/09/11 04:14:14;;;;;;;1.63;1.30;;;;;;;16.32;85.45;99501.56;5108038;28;20615;-62
2023/09/11 04:16:41;;;;;;;1.73;1.27;;;;;;;16.34;85.79;99494.50;5108184;28;20193;-62
2023/09/11 04:19:08;;;;;;;1.87;1.20;;;;;;;16.33;85.33;99497.22;5107430;28;20201;-62
2023/09/11 04:21:36;;;;;;;1.67;1.23;;;;;;;16.33;86.09;99497.22;5108240;28;20201;-62
2023/09/11 04:24:04;;;;;;;1.97;1.33;;;;;;;16.33;86.07;99502.38;5108733;28;20194;-62
2023/09/11 04:26:30;;;;;;;3.03;1.40;;;;;;;16.34;86.60;99504.00;5107848;28;20197;-62
2023/09/11 04:28:57;;;;;;;1.30;1.10;;;;;;;16.36;86.69;99495.19;5107809;28;20260;-62
2023/09/11 04:31:24;;;;;;;2.23;1.40;;;;;;;16.40;86.82;99499.09;5108083;28;20286;-62
2023/09/11 04:33:51;;;;;;;1.70;1.10;;;;;;;16.42;87.07;99501.56;5107691;28;20264;-62
2023/09/11 04:36:18;;;;;;;1.47;1.13;;;;;;;16.35;87.16;99506.47;5107663;28;20197;-63
2023/09/11 04:38:46;;;;;;;1.67;0.93;;;;;;;16.34;87.47;99509.97;5108194;28;20208;-62
2023/09/11 04:41:14;;;;;;;1.20;1.03;;;;;;;16.36;88.03;99512.44;5107780;28;20216;-63
2023/09/11 04:43:40;;;;;;;1.97;1.20;;;;;;;16.42;88.14;99502.38;5107213;28;20304;-63
2023/09/11 04:46:07;;;;;;;1.37;1.20;;;;;;;16.47;87.93;99504.53;5107883;28;20201;-62
2023/09/11 04:48:34;;;;;;;2.70;1.20;;;;;;;16.52;87.76;99508.34;5108706;28;20299;-62
2023/09/11 04:51:01;;;;;;;2.70;1.30;;;;;;;16.59;87.76;99507.78;5107362;28;20204;-63
2023/09/11 04:53:28;;;;;;;1.30;1.20;;;;;;;16.64;88.05;99511.56;5107745;28;20610;-63
2023/09/11 04:55:56;;;;;;;3.87;1.40;;;;;;;16.72;89.58;99514.25;5107846;28;20201;-63
2023/09/11 04:58:25;;;;;;;5.40;1.30;;;;;;;16.84;88.62;99516.69;5107269;28;20588;-63
2023/09/11 05:00:53;;;;;;;1.80;1.30;;;;;;;16.93;88.59;99515.88;5107107;28;20213;-63
2023/09/11 05:03:20;;;;;;;1.37;1.07;;;;;;;16.95;88.66;99514.75;5108071;28;20201;-63
2023/09/11 05:05:49;;;;;;;2.37;1.37;;;;;;;17.07;89.06;99517.19;5107666;28;20190;-63
2023/09/11 05:08:15;;;;;;;5.67;1.40;;;;;;;17.25;89.30;99512.06;5107645;28;20250;-63
2023/09/11 05:10:43;;;;;;;2.03;1.43;;;;;;;17.39;89.95;99511.59;5107971;28;20700;-63
2023/09/11 05:13:11;;;;;;;1.63;1.00;;;;;;;17.57;87.62;99509.03;5107785;28;20252;-63
2023/09/11 05:15:38;;;;;;;5.33;1.10;;;;;;;17.68;87.12;99511.41;5107520;28;20611;-62
2023/09/11 05:18:06;;;;;;;1.50;1.20;;;;;;;17.85;85.88;99508.06;5107612;28;20198;-62
2023/09/11 05:20:33;;;;;;;1.77;1.50;;;;;;;17.99;83.96;99508.53;5110175;28;20200;-63
2023/09/11 05:22:59;;;;;;;4.33;1.40;;;;;;;18.16;84.57;99507.72;5111426;28;20196;-61
2023/09/11 05:25:26;;;;;;;2.03;1.20;;;;;;;18.38;84.12;99513.38;5111530;28;20202;-62
2023/09/11 05:27:53;;;;;;;6.20;1.60;;;;;;;18.56;83.80;99506.41;5111635;28;20485;-63
2023/09/11 05:30:21;;;;;;;2.17;1.43;;;;;;;18.71;82.34;99510.06;5111209;28;20765;-62
2023/09/11 05:32:51;;;;;;;2.07;1.37;;;;;;;18.88;84.16;99515.34;5111115;28;20207;-63
2023/09/11 05:35:18;;;;;;;3.30;1.20;;;;;;;19.04;84.65;99510.25;5111626;28;20199;-62
2023/09/11 05:37:45;;;;;;;2.73;1.67;;;;;;;19.26;85.30;99518.44;5110906;28;20201;-62
2023/09/11 05:40:12;;;;;;;2.20;1.50;;;;;;;19.44;82.56;99514.78;5111219;28;20210;-62
2023/09/11 05:42:39;;;;;;;1.63;1.50;;;;;;;19.55;83.44;99513.69;5110922;28;20204;-62
2023/09/11 05:45:07;;;;;;;2.53;1.53;;;;;;;19.75;82.54;99516.03;5110696;28;20218;-64
2023/09/11 05:47:36;;;;;;;1.87;1.47;;;;;;;19.92;80.30;99520.28;5111115;28;20197;-63
2023/09/11 05:50:04;;;;;;;1.80;1.50;;;;;;;20.05;79.18;99515.44;5110938;28;20208;-63
2023/09/11 05:52:30;;;;;;;1.80;1.40;;;;;;;20.20;79.11;99517.38;5110958;28;20209;-62
2023/09/11 05:54:57;;;;;;;2.47;1.60;;;;;;;20.35;78.04;99510.56;5110409;28;20249;-63
2023/09/11 05:57:24;;;;;;;2.27;1.87;;;;;;;20.43;78.65;99523.53;5110798;28;20199;-62
2023/09/11 05:59:51;;;;;;;2.57;1.70;;;;;;;20.55;77.47;99522.25;5110833;28;20195;-63
2023/09/11 06:02:17;;;;;;;5.83;3.43;;;;;;;20.63;79.27;99523.22;5110658;28;20200;-64
2023/09/11 06:04:46;;;;;;;8.57;1.77;;;;;;;20.65;76.97;99529.84;5110799;28;20194;-63
2023/09/11 06:07:12;;;;;;;3.30;2.10;;;;;;;20.80;78.05;99525.63;5110788;28;20217;-63
2023/09/11 06:09:39;;;;;;;3.57;2.30;;;;;;;20.92;78.49;99522.69;5110478;28;20217;-63
2023/09/11 06:12:07;;;;;;;2.60;1.97;;;;;;;21.17;78.10;99526.00;5110633;28;20204;-62
2023/09/11 06:14:37;;;;;;;5.77;1.70;;;;;;;21.36;76.32;99533.44;5110636;28;20258;-63
2023/09/11 06:17:05;;;;;;;2.63;1.90;;;;;;;21.58;76.18;99533.66;5110276;28;20563;-64
2023/09/11 06:19:32;;;;;;;3.17;2.00;;;;;;;21.66;75.19;99531.00;5110663;28;20201;-63
2023/09/11 06:22:00;;;;;;;2.37;1.73;;;;;;;21.76;71.97;99536.81;5110159;28;20199;-62
2023/09/11 06:24:26;;;;;;;2.23;1.80;;;;;;;21.86;73.82;99542.59;5110024;28;20201;-63
2023/09/11 06:27:04;;;;;;;4.43;3.10;;;;;;;22.10;73.33;99543.41;5109842;28;20206;-62
2023/09/11 06:29:30;;;;;;;2.63;1.77;;;;;;;22.37;72.66;99535.09;5110011;28;20215;-62
2023/09/11 06:31:57;;;;;;;1.93;1.73;;;;;;;22.56;70.11;99544.19;5109593;28;20207;-68
2023/09/11 06:34:24;;;;;;;2.70;1.97;;;;;;;22.71;70.53;99539.00;5109440;28;20227;-68
2023/09/11 06:36:52;;;;;;;2.43;1.60;;;;;;;22.83;67.58;99542.81;5109722;28;20205;-66
2023/09/11 06:39:21;;;;;;;2.20;1.57;;;;;;;23.03;70.52;99534.47;5109668;28;20208;-63
2023/09/11 06:41:48;;;;;;;42.30;3.67;;;;;;;23.19;66.65;99549.13;5109070;28;20574;-63
2023/09/11 06:44:15;;;;;;;7.05;1.88;;;;;;;23.31;66.33;99546.88;5109687;28;20194;-63
2023/09/11 06:46:42;;;;;;;6.63;1.65;;;;;;;23.28;64.93;99546.22;5109919;28;20197;-62
2023/09/11 06:49:09;;;;;;;3.05;1.40;;;;;;;23.54;65.15;99550.16;5109771;28;20197;-63
2023/09/11 06:51:36;;;;;;;4.20;1.80;;;;;;;23.77;62.66;99551.84;5109939;28;20193;-63
2023/09/11 06:54:03;;;;;;;6.43;3.70;;;;;;;23.81;63.97;99550.47;5109774;28;20229;-63
2023/09/11 06:56:32;;;;;;;2.60;1.77;;;;;;;23.92;56.88;99556.03;5109555;28;20204;-64
2023/09/11 06:58:58;;;;;;;2.08;1.50;;;;;;;23.98;58.16;99562.31;5109525;28;20585;-62
2023/09/11 07:01:25;;;;;;;5.70;2.90;;;;;;;24.18;60.06;99554.66;5109271;28;20206;-63
2023/09/11 07:03:52;;;;;;;2.22;1.80;;;;;;;24.25;56.58;99560.75;5109221;28;20197;-63
2023/09/11 07:06:19;;;;;;;4.30;1.63;;;;;;;24.36;54.10;99567.28;5109144;28;20204;-63
2023/09/11 07:08:45;;;;;;;2.45;1.45;;;;;;;24.30;51.91;99560.19;5109073;28;20596;-62
2023/09/11 07:11:12;;;;;;;2.17;1.38;;;;;;;24.54;52.30;99559.78;5109250;28;20197;-63
2023/09/11 07:13:41;;;;;;;1.80;1.30;;;;;;;24.77;51.30;99563.97;5109192;28;20328;-62
2023/09/11 07:16:07;;;;;;;3.17;1.40;;;;;;;24.98;46.72;99561.28;5109292;28;20605;-63
2023/09/11 07:18:34;;;;;;;6.65;1.60;;;;;;;25.02;44.63;99572.19;5109229;28;20193;-64
2023/09/11 07:21:01;;;;;;;1.50;1.33;;;;;;;25.04;47.32;99563.13;5109144;28;20650;-62
2023/09/11 07:23:29;;;;;;;2.65;1.60;;;;;;;25.13;43.90;99566.41;5109163;28;20205;-63
2023/09/11 07:25:56;;;;;;;1.48;1.38;;;;;;;25.04;42.48;99570.97;5109107;28;20208;-63
2023/09/11 07:28:24;;;;;;;2.35;1.70;;;;;;;25.35;46.65;99561.13;5108187;28;20582;-64
2023/09/11 07:30:53;;;;;;;2.83;1.80;;;;;;;25.28;45.54;99561.09;5107621;28;20201;-63
2023/09/11 07:33:20;;;;;;;2.00;1.63;;;;;;;25.60;44.23;99564.00;5107643;28;20589;-63
2023/09/11 07:35:47;;;;;;;1.40;1.30;;;;;;;25.85;47.58;99562.50;5107677;28;20232;-63
2023/09/11 07:38:13;;;;;;;1.65;1.38;;;;;;;26.16;43.20;99569.00;5108229;28;20650;-63
2023/09/11 07:40:40;;;;;;;1.75;1.33;;;;;;;26.17;42.26;99568.78;5108783;28;20208;-64
2023/09/11 07:43:08;;;;;;;3.83;1.60;;;;;;;26.29;41.81;99561.13;5108114;28;20190;-64
2023/09/11 07:45:35;;;;;;;1.48;1.38;;;;;;;26.09;38.97;99553.28;5108502;28;20197;-63
2023/09/11 07:48:03;;;;;;;1.30;1.20;;;;;;;25.92;38.89;99558.09;5108963;28;20197;-62
2023/09/11 07:50:30;;;;;;;1.55;1.35;;;;;;;26.20;41.35;99559.72;5108510;28;20212;-63
2023/09/11 07:52:57;;;;;;;2.60;1.60;;;;;;;26.56;40.73;99554.13;5108350;28;20204;-63
2023/09/11 07:55:24;;;;;;;1.40;1.27;;;;;;;26.96;39.44;99558.47;5108349;28;20744;-63
2023/09/11 07:57:52;;;;;;;1.88;1.30;;;;;;;27.02;38.58;99557.66;5108278;28;20276;-62
2023/09/11 08:00:19;;;;;;;2.63;1.67;;;;;;;26.85;34.14;99563.34;5108574;28;20618;-64
2023/09/11 08:02:48;;;;;;;2.42;1.42;;;;;;;26.95;38.09;99551.63;5108119;28;20571;-64
2023/09/11 08:05:16;;;;;;;3.00;1.60;;;;;;;26.92;36.77;99555.47;5108478;28;20224;-63
2023/09/11 08:07:43;;;;;;;2.17;1.50;;;;;;;27.00;35.22;99551.81;5108528;28;20204;-64
2023/09/11 08:10:10;;;;;;;2.13;1.33;;;;;;;27.25;38.51;99552.75;5108206;28;20303;-62
2023/09/11 08:12:38;;;;;;;1.52;1.20;;;;;;;27.56;36.65;99551.22;5108642;28;20189;-63
2023/09/11 08:15:06;;;;;;;1.55;1.38;;;;;;;27.29;31.97;99550.53;5108228;28;20737;-62
2023/09/11 08:17:33;;;;;;;3.03;1.63;;;;;;;27.55;32.08;99554.88;5108274;28;20209;-63
2023/09/11 08:20:00;;;;;;;2.72;1.50;;;;;;;27.65;32.95;99557.81;5108374;28;20221;-62
2023/09/11 08:22:28;;;;;;;2.47;1.63;;;;;;;27.61;34.03;99556.66;5108231;28;20197;-63
2023/09/11 08:24:54;;;;;;;5.65;2.00;;;;;;;27.67;32.12;99550.53;5108215;28;20197;-63
2023/09/11 08:27:21;;;;;;;5.88;1.70;;;;;;;27.51;31.32;99546.56;5108093;28;20201;-63
2023/09/11 08:29:48;;;;;;;2.50;1.50;;;;;;;27.87;33.32;99547.03;5108195;28;20194;-62
2023/09/11 08:32:15;;;;;;;3.28;1.40;;;;;;;27.87;33.07;99539.16;5108100;28;20224;-63
2023/09/11 08:34:42;;;;;;;5.53;1.90;;;;;;;28.00;34.22;99549.56;5108312;28;20229;-62
2023/09/11 08:37:09;;;;;;;2.60;1.67;;;;;;;27.99;35.38;99553.22;5108082;28;20716;-64
2023/09/11 08:39:37;;;;;;;1.73;1.30;;;;;;;28.11;35.35;99548.88;5108065;28;20263;-62
2023/09/11 08:42:05;;;;;;;2.03;1.40;;;;;;;27.88;31.40;99548.63;5108487;28;20204;-63
2023/09/11 08:44:32;;;;;;;3.17;1.48;;;;;;;27.90;29.59;99543.97;5108440;28;20740;-62
2023/09/11 08:47:03;;;;;;;1.40;1.20;;;;;;;28.16;32.31;99541.16;5108113;28;20205;-62
2023/09/11 08:49:33;;;;;;;1.48;1.30;;;;;;;28.28;30.50;99533.38;5108067;28;20225;-61
2023/09/11 08:52:04;;;;;;;2.00;1.35;;;;;;;28.47;31.88;99542.13;5108342;28;20208;-62
2023/09/11 08:54:41;;;;;;;1.48;1.33;;;;;;;28.11;31.67;99538.34;5110307;28;20229;-63
2023/09/11 08:57:11;;;;;;;2.80;1.25;;;;;;;28.20;32.32;99536.25;5111799;28;20204;-63
2023/09/11 08:59:41;;;;;;;2.65;1.30;;;;;;;27.48;29.08;99535.69;5112089;28;20201;-62
2023/09/11 09:02:08;;;;;;;2.28;1.38;;;;;;;27.70;29.98;99526.47;5111807;28;20194;-63
2023/09/11 09:04:37;;;;;;;1.92;1.45;;;;;;;28.24;34.84;99524.28;5111809;28;20194;-62
2023/09/11 09:07:06;;;;;;;1.63;1.33;;;;;;;28.65;32.05;99529.00;5111848;28;20193;-63
2023/09/11 09:09:33;;;;;;;1.30;1.20;;;;;;;28.57;31.03;99524.03;5111945;28;20205;-62
2023/09/11 09:12:03;;;;;;;2.35;1.60;;;;;;;28.78;29.56;99524.63;5111651;28;20580;-63
2023/09/11 09:14:32;;;;;;;1.92;1.40;;;;;;;28.57;29.75;99529.28;5111309;28;20225;-63
2023/09/11 09:16:58;;;;;;;2.40;1.50;;;;;;;28.96;31.81;99531.72;5111477;28;20201;-62
2023/09/11 09:19:25;;;;;;;2.28;1.48;;;;;;;29.27;33.58;99517.59;5111446;28;20648;-62
2023/09/11 09:22:13;;;;;;;1.58;1.30;;;;;;;29.29;31.73;99520.81;5111360;28;20210;-62
2023/09/11 09:24:49;;;;;;;1.65;1.33;;;;;;;29.50;32.42;99517.69;5111496;28;20240;-63
2023/09/11 09:27:17;;;;;;;2.15;1.42;;;;;;;29.40;31.16;99522.69;5111601;28;20204;-63
2023/09/11 09:29:44;;;;;;;4.68;1.42;;;;;;;29.60;34.29;99521.63;5111285;28;20214;-62
2023/09/11 09:32:12;;;;;;;3.55;1.50;;;;;;;29.65;32.95;99519.16;5111201;28;20670;-63
2023/09/11 09:34:43;;;;;;;1.65;1.25;;;;;;;29.69;30.35;99515.81;5111016;28;20225;-63
2023/09/11 09:37:16;;;;;;;3.67;1.50;;;;;;;29.93;31.04;99511.44;5111068;28;20198;-63
2023/09/11 09:39:44;;;;;;;1.70;1.30;;;;;;;30.10;31.09;99508.09;5111344;28;20735;-63
2023/09/11 09:42:12;;;;;;;1.50;1.13;;;;;;;30.04;30.69;99501.91;5110971;28;20207;-63
2023/09/11 09:44:43;;;;;;;1.40;1.30;;;;;;;30.00;28.38;99506.84;5111257;28;20197;-63
2023/09/11 09:47:12;;;;;;;1.20;1.10;;;;;;;29.96;30.51;99504.88;5111192;28;20208;-63
2023/09/11 09:49:45;;;;;;;2.20;1.40;;;;;;;29.63;32.89;99500.91;5111117;28;20236;-63
2023/09/11 09:52:13;;;;;;;1.55;1.33;;;;;;;29.71;31.39;99494.53;5110720;28;20201;-63
2023/09/11 09:54:47;;;;;;;3.33;1.50;;;;;;;30.11;32.81;99497.34;5110620;28;20233;-63
2023/09/11 09:57:16;;;;;;;1.77;1.40;;;;;;;30.23;31.49;99494.75;5110632;28;20606;-63
2023/09/11 09:59:47;;;;;;;2.40;1.30;;;;;;;30.40;31.25;99485.09;5110792;28;20194;-63
2023/09/11 10:02:15;;;;;;;3.88;1.60;;;;;;;30.43;32.03;99484.63;5110641;28;20212;-63
2023/09/11 10:04:41;;;;;;;6.55;1.30;;;;;;;30.35;29.63;99486.81;5110466;28;20437;-63
2023/09/11 10:07:08;;;;;;;3.13;1.50;;;;;;;29.83;29.07;99490.06;5110665;28;20589;-63
2023/09/11 10:09:35;;;;;;;2.97;1.40;;;;;;;30.24;32.68;99491.06;5110683;28;20205;-63
2023/09/11 10:12:04;;;;;;;1.60;1.50;;;;;;;30.56;34.54;99482.78;5110712;28;20241;-63
2023/09/11 10:14:31;;;;;;;3.95;1.40;;;;;;;30.79;32.40;99482.75;5110649;28;20265;-63
2023/09/11 10:17:01;;;;;;;1.83;1.35;;;;;;;30.97;29.74;99478.34;5110463;28;20690;-63
2023/09/11 10:19:31;;;;;;;1.73;1.52;;;;;;;30.91;29.76;99477.44;5110527;28;20237;-63
2023/09/11 10:21:59;;;;;;;1.67;1.42;;;;;;;30.99;28.92;99471.00;5110513;28;20254;-63
2023/09/11 10:24:27;;;;;;;2.63;1.70;;;;;;;30.85;34.32;99471.25;5110534;28;20233;-63
2023/09/11 10:26:57;;;;;;;2.13;1.50;;;;;;;30.80;32.09;99463.22;5110058;28;20228;-63
2023/09/11 10:29:35;;;;;;;2.67;1.60;;;;;;;31.15;31.97;99466.78;5110031;28;20661;-63
2023/09/11 10:32:10;;;;;;;5.80;1.40;;;;;;;31.28;28.58;99464.69;5110414;28;20205;-63
2023/09/11 10:34:38;;;;;;;2.03;1.42;;;;;;;30.87;30.16;99463.13;5109863;28;20224;-63
2023/09/11 10:37:06;;;;;;;1.60;1.50;;;;;;;31.04;30.52;99457.88;5110423;28;20258;-63
2023/09/11 10:39:37;;;;;;;3.53;1.50;;;;;;;30.86;30.16;99457.03;5109856;28;20212;-63
2023/09/11 10:42:05;;;;;;;2.83;1.30;;;;;;;31.01;30.78;99453.06;5109962;28;20197;-63
2023/09/11 10:44:35;;;;;;;3.78;1.30;;;;;;;30.70;30.31;99449.81;5109926;28;20582;-62
2023/09/11 10:47:04;;;;;;;1.83;1.50;;;;;;;30.89;30.05;99446.00;5109886;28;20670;-62
2023/09/11 10:49:36;;;;;;;1.50;1.40;;;;;;;30.58;27.43;99451.69;5109834;28;20697;-63
2023/09/11 10:52:06;;;;;;;1.75;1.40;;;;;;;30.30;29.78;99453.22;5109694;28;20194;-63
2023/09/11 10:54:33;;;;;;;2.45;1.50;;;;;;;30.57;30.24;99452.69;5109663;28;20258;-63
2023/09/11 10:57:00;;;;;;;1.38;1.27;;;;;;;30.29;29.56;99450.81;5109489;28;20201;-63
2023/09/11 10:59:27;;;;;;;1.70;1.38;;;;;;;30.41;31.47;99447.13;5109316;28;20221;-62
2023/09/11 11:01:54;;;;;;;1.73;1.50;;;;;;;30.54;29.28;99447.91;5109061;28;20197;-63
2023/09/11 11:04:24;;;;;;;3.72;1.70;;;;;;;30.07;30.35;99447.91;5109533;28;20624;-62
2023/09/11 11:06:55;;;;;;;2.78;1.52;;;;;;;30.06;30.05;99446.31;5109157;28;20583;-62
2023/09/11 11:09:26;;;;;;;1.80;1.33;;;;;;;30.20;31.61;99445.84;5109321;28;20627;-63
2023/09/11 11:11:57;;;;;;;1.65;1.33;;;;;;;30.29;28.75;99440.25;5109313;28;20205;-63
2023/09/11 11:14:24;;;;;;;6.28;1.50;;;;;;;30.44;30.90;99436.09;5109061;28;20637;-63
2023/09/11 11:16:56;;;;;;;4.00;1.60;;;;;;;30.48;30.53;99425.06;5108576;28;20205;-62
2023/09/11 11:19:29;;;;;;;2.38;1.30;;;;;;;30.65;29.61;99428.59;5109191;28;20202;-63
2023/09/11 11:21:55;;;;;;;2.03;1.30;;;;;;;30.70;28.13;99426.06;5108837;28;20581;-63
2023/09/11 11:24:24;;;;;;;3.97;1.50;;;;;;;30.63;27.78;99415.66;5107612;28;20233;-63
2023/09/11 11:26:55;;;;;;;2.65;1.42;;;;;;;30.57;27.61;99426.31;5107436;28;20240;-63
2023/09/11 11:29:22;;;;;;;2.00;1.40;;;;;;;30.80;30.76;99414.91;5108221;28;20301;-63
2023/09/11 11:31:53;;;;;;;1.60;1.40;;;;;;;30.31;27.38;99411.78;5109275;28;20205;-63
2023/09/11 11:34:24;;;;;;;3.50;1.50;;;;;;;30.50;31.87;99409.81;5109347;28;20730;-62
2023/09/11 11:36:54;;;;;;;1.95;1.40;;;;;;;30.55;28.59;99409.94;5108533;28;20233;-62
2023/09/11 11:39:22;;;;;;;2.70;1.60;;;;;;;30.43;30.06;99410.75;5108648;28;20250;-63